sensor_id;sensor_type;location;lat;lon;timestamp;temperature;humidity
25504;DHT22;13410;52.114;5.718;2023-03-31T00:01:24;14.80;99.90
25504;DHT22;13410;52.114;5.718;2023-03-31T00:03:49;14.70;99.90
25504;DHT22;13410;52.114;5.718;2023-03-31T00:06:15;14.70;99.90
25504;DHT22;13410;52.114;5.718;2023-03-31T00:08:44;14.80;99.90
25504;DHT22;13410;52.114;5.718;2023-03-31T00:11:10;14.80;99.90
25504;DHT22;13410;52.114;5.718;2023-03-31T00:13:36;14.80;99.90
25504;DHT22;13410;52.114;5.718;2023-03-31T00:16:07;14.80;99.90
25504;DHT22;13410;52.114;5.718;2023-03-31T00:18:33;14.90;99.90
25504;DHT22;13410;52.114;5.718;2023-03-31T00:21:11;14.90;99.90
25504;DHT22;13410;52.114;5.718;2023-03-31T00:23:50;15.10;99.90
25504;DHT22;13410;52.114;5.718;2023-03-31T00:26:15;14.90;99.90
25504;DHT22;13410;52.114;5.718;2023-03-31T00:28:41;15.00;99.90
25504;DHT22;13410;52.114;5.718;2023-03-31T00:31:06;15.10;99.90
25504;DHT22;13410;52.114;5.718;2023-03-31T00:33:32;15.20;99.90
25504;DHT22;13410;52.114;5.718;2023-03-31T00:35:58;15.20;99.90
25504;DHT22;13410;52.114;5.718;2023-03-31T00:38:27;15.10;99.90
25504;DHT22;13410;52.114;5.718;2023-03-31T00:40:54;15.10;99.90
25504;DHT22;13410;52.114;5.718;2023-03-31T00:43:27;15.10;99.90
25504;DHT22;13410;52.114;5.718;2023-03-31T00:46:19;15.20;99.90
25504;DHT22;13410;52.114;5.718;2023-03-31T00:48:52;15.10;99.90
25504;DHT22;13410;52.114;5.718;2023-03-31T00:51:20;15.10;99.90
25504;DHT22;13410;52.114;5.718;2023-03-31T00:53:50;15.20;99.90
25504;DHT22;13410;52.114;5.718;2023-03-31T00:56:20;15.20;99.90
25504;DHT22;13410;52.114;5.718;2023-03-31T00:58:45;15.20;99.90
25504;DHT22;13410;52.114;5.718;2023-03-31T01:01:16;15.30;99.90
25504;DHT22;13410;52.114;5.718;2023-03-31T01:03:44;15.20;99.90
25504;DHT22;13410;52.114;5.718;2023-03-31T01:06:12;15.40;99.90
25504;DHT22;13410;52.114;5.718;2023-03-31T01:08:40;15.30;99.90
25504;DHT22;13410;52.114;5.718;2023-03-31T01:11:09;15.30;99.90
25504;DHT22;13410;52.114;5.718;2023-03-31T01:13:38;15.20;99.90
25504;DHT22;13410;52.114;5.718;2023-03-31T01:16:04;15.30;99.90
25504;DHT22;13410;52.114;5.718;2023-03-31T01:18:29;15.20;99.90
25504;DHT22;13410;52.114;5.718;2023-03-31T01:37:57;15.30;99.90
25504;DHT22;13410;52.114;5.718;2023-03-31T01:46:01;15.40;99.90
25504;DHT22;13410;52.114;5.718;2023-03-31T01:48:51;15.60;99.90
25504;DHT22;13410;52.114;5.718;2023-03-31T01:51:26;15.50;99.90
25504;DHT22;13410;52.114;5.718;2023-03-31T01:53:54;15.50;99.90
25504;DHT22;13410;52.114;5.718;2023-03-31T01:56:34;15.60;99.90
25504;DHT22;13410;52.114;5.718;2023-03-31T01:59:13;15.60;99.90
25504;DHT22;13410;52.114;5.718;2023-03-31T02:01:50;15.50;99.90
25504;DHT22;13410;52.114;5.718;2023-03-31T02:04:23;15.50;99.90
25504;DHT22;13410;52.114;5.718;2023-03-31T02:06:54;15.50;99.90
25504;DHT22;13410;52.114;5.718;2023-03-31T02:09:25;15.30;99.90
25504;DHT22;13410;52.114;5.718;2023-03-31T02:11:53;15.20;99.90
25504;DHT22;13410;52.114;5.718;2023-03-31T02:14:23;15.20;99.90
25504;DHT22;13410;52.114;5.718;2023-03-31T02:16:54;15.20;99.90
25504;DHT22;13410;52.114;5.718;2023-03-31T02:19:25;15.30;99.90
25504;DHT22;13410;52.114;5.718;2023-03-31T02:21:52;15.30;99.90
25504;DHT22;13410;52.114;5.718;2023-03-31T02:24:21;15.30;99.90
25504;DHT22;13410;52.114;5.718;2023-03-31T02:26:55;15.10;99.90
25504;DHT22;13410;52.114;5.718;2023-03-31T02:29:24;15.20;99.90
25504;DHT22;13410;52.114;5.718;2023-03-31T02:32:03;15.10;99.90
25504;DHT22;13410;52.114;5.718;2023-03-31T02:34:31;15.10;99.90
25504;DHT22;13410;52.114;5.718;2023-03-31T02:36:56;15.20;99.90
25504;DHT22;13410;52.114;5.718;2023-03-31T02:39:30;15.10;99.90
25504;DHT22;13410;52.114;5.718;2023-03-31T02:41:58;15.10;99.90
25504;DHT22;13410;52.114;5.718;2023-03-31T02:44:24;15.20;99.90
25504;DHT22;13410;52.114;5.718;2023-03-31T02:46:50;15.30;99.90
25504;DHT22;13410;52.114;5.718;2023-03-31T02:49:17;15.20;99.90
25504;DHT22;13410;52.114;5.718;2023-03-31T02:51:58;15.30;99.90
25504;DHT22;13410;52.114;5.718;2023-03-31T03:02:59;15.00;99.90
25504;DHT22;13410;52.114;5.718;2023-03-31T03:05:40;14.90;99.90
25504;DHT22;13410;52.114;5.718;2023-03-31T03:08:18;14.90;99.90
25504;DHT22;13410;52.114;5.718;2023-03-31T03:11:13;14.90;99.90
25504;DHT22;13410;52.114;5.718;2023-03-31T03:16:32;15.10;99.90
25504;DHT22;13410;52.114;5.718;2023-03-31T03:19:03;15.20;99.90
25504;DHT22;13410;52.114;5.718;2023-03-31T03:21:30;15.20;99.90
25504;DHT22;13410;52.114;5.718;2023-03-31T03:23:57;15.30;99.90
25504;DHT22;13410;52.114;5.718;2023-03-31T03:26:24;15.30;99.90
25504;DHT22;13410;52.114;5.718;2023-03-31T03:28:53;15.20;99.90
25504;DHT22;13410;52.114;5.718;2023-03-31T03:31:19;15.20;99.90
25504;DHT22;13410;52.114;5.718;2023-03-31T03:33:45;15.10;99.90
25504;DHT22;13410;52.114;5.718;2023-03-31T03:36:11;15.20;99.90
25504;DHT22;13410;52.114;5.718;2023-03-31T03:38:36;15.30;99.90
25504;DHT22;13410;52.114;5.718;2023-03-31T03:41:02;15.30;99.90
25504;DHT22;13410;52.114;5.718;2023-03-31T03:43:28;15.40;99.90
25504;DHT22;13410;52.114;5.718;2023-03-31T03:45:53;15.30;99.90
25504;DHT22;13410;52.114;5.718;2023-03-31T03:48:19;15.40;99.90
25504;DHT22;13410;52.114;5.718;2023-03-31T03:50:46;15.30;99.90
25504;DHT22;13410;52.114;5.718;2023-03-31T03:53:13;15.30;99.90
25504;DHT22;13410;52.114;5.718;2023-03-31T03:55:38;15.30;99.90
25504;DHT22;13410;52.114;5.718;2023-03-31T03:58:04;15.20;99.90
25504;DHT22;13410;52.114;5.718;2023-03-31T04:00:30;15.10;99.90
25504;DHT22;13410;52.114;5.718;2023-03-31T04:02:55;15.00;99.90
25504;DHT22;13410;52.114;5.718;2023-03-31T04:05:21;15.20;99.90
25504;DHT22;13410;52.114;5.718;2023-03-31T04:07:47;15.10;99.90
25504;DHT22;13410;52.114;5.718;2023-03-31T04:10:12;15.20;99.90
25504;DHT22;13410;52.114;5.718;2023-03-31T04:12:38;15.30;99.90
25504;DHT22;13410;52.114;5.718;2023-03-31T04:15:04;15.30;99.90
25504;DHT22;13410;52.114;5.718;2023-03-31T04:17:30;15.30;99.90
25504;DHT22;13410;52.114;5.718;2023-03-31T04:20:09;15.40;99.90
25504;DHT22;13410;52.114;5.718;2023-03-31T04:22:36;15.40;99.90
25504;DHT22;13410;52.114;5.718;2023-03-31T04:25:12;15.50;99.90
25504;DHT22;13410;52.114;5.718;2023-03-31T04:27:46;15.50;99.90
25504;DHT22;13410;52.114;5.718;2023-03-31T04:30:15;15.50;99.90
25504;DHT22;13410;52.114;5.718;2023-03-31T04:33:05;15.40;99.90
25504;DHT22;13410;52.114;5.718;2023-03-31T04:35:31;15.30;99.90
25504;DHT22;13410;52.114;5.718;2023-03-31T04:38:17;15.30;99.90
25504;DHT22;13410;52.114;5.718;2023-03-31T04:40:48;14.90;99.90
25504;DHT22;13410;52.114;5.718;2023-03-31T04:43:14;14.90;99.90
25504;DHT22;13410;52.114;5.718;2023-03-31T04:45:40;14.90;99.90
25504;DHT22;13410;52.114;5.718;2023-03-31T04:48:06;14.70;99.90
25504;DHT22;13410;52.114;5.718;2023-03-31T04:50:32;14.70;99.90
25504;DHT22;13410;52.114;5.718;2023-03-31T04:52:57;14.40;99.90
25504;DHT22;13410;52.114;5.718;2023-03-31T04:55:23;14.30;99.90
25504;DHT22;13410;52.114;5.718;2023-03-31T04:57:49;14.30;99.90
25504;DHT22;13410;52.114;5.718;2023-03-31T05:00:16;14.40;99.90
25504;DHT22;13410;52.114;5.718;2023-03-31T05:02:42;14.30;99.90
25504;DHT22;13410;52.114;5.718;2023-03-31T05:05:08;14.30;99.90
25504;DHT22;13410;52.114;5.718;2023-03-31T05:07:34;14.40;99.90
25504;DHT22;13410;52.114;5.718;2023-03-31T05:10:00;14.20;99.90
25504;DHT22;13410;52.114;5.718;2023-03-31T05:12:25;14.20;99.90
25504;DHT22;13410;52.114;5.718;2023-03-31T05:14:51;14.20;99.90
25504;DHT22;13410;52.114;5.718;2023-03-31T05:17:16;14.40;99.90
25504;DHT22;13410;52.114;5.718;2023-03-31T05:19:43;14.30;99.90
25504;DHT22;13410;52.114;5.718;2023-03-31T05:22:08;14.40;99.90
25504;DHT22;13410;52.114;5.718;2023-03-31T05:24:34;14.50;99.90
25504;DHT22;13410;52.114;5.718;2023-03-31T05:27:00;14.50;99.90
25504;DHT22;13410;52.114;5.718;2023-03-31T05:29:25;14.70;99.90
25504;DHT22;13410;52.114;5.718;2023-03-31T05:31:51;14.90;99.90
25504;DHT22;13410;52.114;5.718;2023-03-31T05:34:18;14.60;99.90
25504;DHT22;13410;52.114;5.718;2023-03-31T05:36:43;14.70;99.90
25504;DHT22;13410;52.114;5.718;2023-03-31T05:39:12;14.90;99.90
25504;DHT22;13410;52.114;5.718;2023-03-31T05:41:38;14.70;99.90
25504;DHT22;13410;52.114;5.718;2023-03-31T05:44:03;14.80;99.90
25504;DHT22;13410;52.114;5.718;2023-03-31T05:46:29;14.90;99.90
25504;DHT22;13410;52.114;5.718;2023-03-31T05:48:54;14.90;99.90
25504;DHT22;13410;52.114;5.718;2023-03-31T05:51:21;14.80;99.90
25504;DHT22;13410;52.114;5.718;2023-03-31T05:53:46;14.70;99.90
25504;DHT22;13410;52.114;5.718;2023-03-31T05:56:12;14.70;99.90
25504;DHT22;13410;52.114;5.718;2023-03-31T05:58:38;14.80;99.90
25504;DHT22;13410;52.114;5.718;2023-03-31T06:01:06;14.70;99.90
25504;DHT22;13410;52.114;5.718;2023-03-31T06:03:37;14.80;99.90
25504;DHT22;13410;52.114;5.718;2023-03-31T06:06:04;15.00;99.90
25504;DHT22;13410;52.114;5.718;2023-03-31T06:08:31;14.90;99.90
25504;DHT22;13410;52.114;5.718;2023-03-31T06:10:56;15.10;99.90
25504;DHT22;13410;52.114;5.718;2023-03-31T06:13:22;15.10;99.90
25504;DHT22;13410;52.114;5.718;2023-03-31T06:15:59;15.10;99.90
25504;DHT22;13410;52.114;5.718;2023-03-31T06:18:27;14.70;99.90
25504;DHT22;13410;52.114;5.718;2023-03-31T06:20:54;14.40;99.90
25504;DHT22;13410;52.114;5.718;2023-03-31T06:23:20;14.30;99.90
25504;DHT22;13410;52.114;5.718;2023-03-31T06:25:45;14.50;99.90
25504;DHT22;13410;52.114;5.718;2023-03-31T06:28:11;14.70;99.90
25504;DHT22;13410;52.114;5.718;2023-03-31T06:30:36;14.80;99.90
25504;DHT22;13410;52.114;5.718;2023-03-31T06:33:02;14.90;99.90
25504;DHT22;13410;52.114;5.718;2023-03-31T06:35:28;15.10;99.90
25504;DHT22;13410;52.114;5.718;2023-03-31T06:37:53;15.20;99.90
25504;DHT22;13410;52.114;5.718;2023-03-31T06:40:19;15.20;99.90
25504;DHT22;13410;52.114;5.718;2023-03-31T06:42:45;15.00;99.90
25504;DHT22;13410;52.114;5.718;2023-03-31T06:45:10;15.10;99.90
25504;DHT22;13410;52.114;5.718;2023-03-31T06:47:36;15.30;99.90
25504;DHT22;13410;52.114;5.718;2023-03-31T06:50:08;15.30;99.90
25504;DHT22;13410;52.114;5.718;2023-03-31T06:52:35;15.40;99.90
25504;DHT22;13410;52.114;5.718;2023-03-31T06:55:01;15.60;99.90
25504;DHT22;13410;52.114;5.718;2023-03-31T06:57:28;15.70;99.90
25504;DHT22;13410;52.114;5.718;2023-03-31T06:59:54;15.70;99.90
25504;DHT22;13410;52.114;5.718;2023-03-31T07:02:20;15.90;99.90
25504;DHT22;13410;52.114;5.718;2023-03-31T07:04:45;15.90;99.90
25504;DHT22;13410;52.114;5.718;2023-03-31T07:07:11;15.70;99.90
25504;DHT22;13410;52.114;5.718;2023-03-31T07:09:37;15.70;99.90
25504;DHT22;13410;52.114;5.718;2023-03-31T07:12:03;15.70;99.90
25504;DHT22;13410;52.114;5.718;2023-03-31T07:14:30;15.70;99.90
25504;DHT22;13410;52.114;5.718;2023-03-31T07:16:56;15.60;99.90
25504;DHT22;13410;52.114;5.718;2023-03-31T07:19:22;15.70;99.90
25504;DHT22;13410;52.114;5.718;2023-03-31T07:21:48;15.70;99.90
25504;DHT22;13410;52.114;5.718;2023-03-31T07:24:14;15.70;99.90
25504;DHT22;13410;52.114;5.718;2023-03-31T07:26:39;15.80;99.90
25504;DHT22;13410;52.114;5.718;2023-03-31T07:29:05;15.70;99.90
25504;DHT22;13410;52.114;5.718;2023-03-31T07:31:30;15.80;99.90
25504;DHT22;13410;52.114;5.718;2023-03-31T07:33:56;15.90;99.90
25504;DHT22;13410;52.114;5.718;2023-03-31T07:36:22;15.90;99.90
25504;DHT22;13410;52.114;5.718;2023-03-31T07:38:48;16.00;99.90
25504;DHT22;13410;52.114;5.718;2023-03-31T07:41:17;16.00;99.90
25504;DHT22;13410;52.114;5.718;2023-03-31T07:43:43;16.10;99.90
25504;DHT22;13410;52.114;5.718;2023-03-31T07:46:24;16.00;99.90
25504;DHT22;13410;52.114;5.718;2023-03-31T07:48:50;16.20;99.90
25504;DHT22;13410;52.114;5.718;2023-03-31T07:51:19;16.10;99.90
25504;DHT22;13410;52.114;5.718;2023-03-31T07:53:45;16.00;99.90
25504;DHT22;13410;52.114;5.718;2023-03-31T07:56:12;16.00;99.90
25504;DHT22;13410;52.114;5.718;2023-03-31T07:58:37;16.20;99.90
25504;DHT22;13410;52.114;5.718;2023-03-31T08:01:03;16.10;99.90
25504;DHT22;13410;52.114;5.718;2023-03-31T08:03:29;16.10;99.90
25504;DHT22;13410;52.114;5.718;2023-03-31T08:05:56;16.10;99.90
25504;DHT22;13410;52.114;5.718;2023-03-31T08:08:22;16.10;99.90
25504;DHT22;13410;52.114;5.718;2023-03-31T08:10:47;16.20;99.90
25504;DHT22;13410;52.114;5.718;2023-03-31T08:13:13;16.20;99.90
25504;DHT22;13410;52.114;5.718;2023-03-31T08:15:38;16.20;99.90
25504;DHT22;13410;52.114;5.718;2023-03-31T08:18:04;16.20;99.90
25504;DHT22;13410;52.114;5.718;2023-03-31T08:20:31;16.20;99.90
25504;DHT22;13410;52.114;5.718;2023-03-31T08:22:56;16.30;99.90
25504;DHT22;13410;52.114;5.718;2023-03-31T08:25:22;16.50;99.90
25504;DHT22;13410;52.114;5.718;2023-03-31T08:27:48;16.50;99.90
25504;DHT22;13410;52.114;5.718;2023-03-31T08:30:16;16.70;99.90
25504;DHT22;13410;52.114;5.718;2023-03-31T08:32:42;16.60;99.90
25504;DHT22;13410;52.114;5.718;2023-03-31T08:35:08;16.50;99.90
25504;DHT22;13410;52.114;5.718;2023-03-31T08:37:35;16.50;99.90
25504;DHT22;13410;52.114;5.718;2023-03-31T08:40:02;16.20;99.90
25504;DHT22;13410;52.114;5.718;2023-03-31T08:42:38;16.20;99.90
25504;DHT22;13410;52.114;5.718;2023-03-31T08:47:51;16.30;99.90
25504;DHT22;13410;52.114;5.718;2023-03-31T08:50:24;16.30;99.90
25504;DHT22;13410;52.114;5.718;2023-03-31T08:53:03;16.40;99.90
25504;DHT22;13410;52.114;5.718;2023-03-31T08:55:38;16.40;99.90
25504;DHT22;13410;52.114;5.718;2023-03-31T08:58:12;16.40;99.90
25504;DHT22;13410;52.114;5.718;2023-03-31T09:00:49;16.50;99.90
25504;DHT22;13410;52.114;5.718;2023-03-31T09:12:55;16.30;99.90
25504;DHT22;13410;52.114;5.718;2023-03-31T09:15:26;16.40;99.90
25504;DHT22;13410;52.114;5.718;2023-03-31T09:17:53;16.50;99.90
25504;DHT22;13410;52.114;5.718;2023-03-31T09:20:29;16.60;99.90
25504;DHT22;13410;52.114;5.718;2023-03-31T09:23:28;16.60;99.90
25504;DHT22;13410;52.114;5.718;2023-03-31T09:25:57;16.80;99.90
25504;DHT22;13410;52.114;5.718;2023-03-31T09:28:44;17.00;99.90
25504;DHT22;13410;52.114;5.718;2023-03-31T09:31:14;17.20;99.90
25504;DHT22;13410;52.114;5.718;2023-03-31T09:33:46;17.10;99.90
25504;DHT22;13410;52.114;5.718;2023-03-31T09:36:16;17.30;99.90
25504;DHT22;13410;52.114;5.718;2023-03-31T09:38:43;17.40;99.90
25504;DHT22;13410;52.114;5.718;2023-03-31T09:41:09;17.60;99.90
25504;DHT22;13410;52.114;5.718;2023-03-31T09:43:36;17.70;99.90
25504;DHT22;13410;52.114;5.718;2023-03-31T09:46:05;17.90;99.90
25504;DHT22;13410;52.114;5.718;2023-03-31T09:48:38;18.00;99.90
25504;DHT22;13410;52.114;5.718;2023-03-31T09:51:06;17.90;99.90
25504;DHT22;13410;52.114;5.718;2023-03-31T09:53:54;18.10;99.90
25504;DHT22;13410;52.114;5.718;2023-03-31T09:59:14;18.10;99.90
25504;DHT22;13410;52.114;5.718;2023-03-31T10:01:41;18.20;99.90
25504;DHT22;13410;52.114;5.718;2023-03-31T10:04:22;18.20;99.90
25504;DHT22;13410;52.114;5.718;2023-03-31T10:06:49;18.30;99.90
25504;DHT22;13410;52.114;5.718;2023-03-31T10:09:16;18.40;99.90
25504;DHT22;13410;52.114;5.718;2023-03-31T10:11:55;18.10;99.90
25504;DHT22;13410;52.114;5.718;2023-03-31T10:14:32;18.00;99.90
25504;DHT22;13410;52.114;5.718;2023-03-31T10:16:58;18.10;99.90
25504;DHT22;13410;52.114;5.718;2023-03-31T10:19:28;18.30;99.90
25504;DHT22;13410;52.114;5.718;2023-03-31T10:21:58;18.30;99.90
25504;DHT22;13410;52.114;5.718;2023-03-31T10:24:24;18.40;99.90
25504;DHT22;13410;52.114;5.718;2023-03-31T10:26:54;18.70;99.90
25504;DHT22;13410;52.114;5.718;2023-03-31T10:29:32;18.90;99.90
25504;DHT22;13410;52.114;5.718;2023-03-31T10:32:10;18.90;99.90
25504;DHT22;13410;52.114;5.718;2023-03-31T10:34:40;19.00;99.90
25504;DHT22;13410;52.114;5.718;2023-03-31T10:37:09;18.90;99.90
25504;DHT22;13410;52.114;5.718;2023-03-31T10:39:36;19.00;99.90
25504;DHT22;13410;52.114;5.718;2023-03-31T10:42:03;18.90;99.90
25504;DHT22;13410;52.114;5.718;2023-03-31T10:44:34;19.00;99.90
25504;DHT22;13410;52.114;5.718;2023-03-31T10:47:17;19.30;99.90
25504;DHT22;13410;52.114;5.718;2023-03-31T10:49:44;19.50;99.90
25504;DHT22;13410;52.114;5.718;2023-03-31T10:52:24;19.60;99.90
25504;DHT22;13410;52.114;5.718;2023-03-31T10:54:58;19.70;99.90
25504;DHT22;13410;52.114;5.718;2023-03-31T11:05:51;19.80;99.90
25504;DHT22;13410;52.114;5.718;2023-03-31T11:11:57;19.70;99.90
25504;DHT22;13410;52.114;5.718;2023-03-31T11:14:04;19.60;99.90
25504;DHT22;13410;52.114;5.718;2023-03-31T11:22:14;19.20;99.90
25504;DHT22;13410;52.114;5.718;2023-03-31T11:30:35;19.00;99.90
25504;DHT22;13410;52.114;5.718;2023-03-31T11:41:42;18.90;99.90
25504;DHT22;13410;52.114;5.718;2023-03-31T11:44:12;19.10;99.90
25504;DHT22;13410;52.114;5.718;2023-03-31T11:46:52;19.10;99.90
25504;DHT22;13410;52.114;5.718;2023-03-31T11:49:32;18.80;99.90
25504;DHT22;13410;52.114;5.718;2023-03-31T11:52:27;18.90;99.90
25504;DHT22;13410;52.114;5.718;2023-03-31T11:57:24;18.50;99.90
25504;DHT22;13410;52.114;5.718;2023-03-31T11:59:59;18.40;99.90
25504;DHT22;13410;52.114;5.718;2023-03-31T12:05:06;18.40;99.90
25504;DHT22;13410;52.114;5.718;2023-03-31T12:07:40;18.50;99.90
25504;DHT22;13410;52.114;5.718;2023-03-31T12:10:14;18.70;99.90
25504;DHT22;13410;52.114;5.718;2023-03-31T12:12:55;18.80;99.90
25504;DHT22;13410;52.114;5.718;2023-03-31T12:15:32;18.90;99.90
25504;DHT22;13410;52.114;5.718;2023-03-31T12:18:13;18.70;99.90
25504;DHT22;13410;52.114;5.718;2023-03-31T12:20:46;18.50;99.90
25504;DHT22;13410;52.114;5.718;2023-03-31T12:23:22;18.50;99.90
25504;DHT22;13410;52.114;5.718;2023-03-31T12:28:32;18.20;99.90
25504;DHT22;13410;52.114;5.718;2023-03-31T12:31:00;18.10;99.90
25504;DHT22;13410;52.114;5.718;2023-03-31T12:33:31;18.30;99.90
25504;DHT22;13410;52.114;5.718;2023-03-31T12:36:05;18.40;99.90
25504;DHT22;13410;52.114;5.718;2023-03-31T12:39:17;18.50;99.90
25504;DHT22;13410;52.114;5.718;2023-03-31T12:52:58;18.50;99.90
25504;DHT22;13410;52.114;5.718;2023-03-31T12:55:41;18.30;99.90
25504;DHT22;13410;52.114;5.718;2023-03-31T13:01:09;18.30;99.90
25504;DHT22;13410;52.114;5.718;2023-03-31T13:06:03;18.30;99.90
25504;DHT22;13410;52.114;5.718;2023-03-31T13:09:00;18.20;99.90
25504;DHT22;13410;52.114;5.718;2023-03-31T13:14:00;18.00;99.90
25504;DHT22;13410;52.114;5.718;2023-03-31T13:16:31;18.20;99.90
25504;DHT22;13410;52.114;5.718;2023-03-31T13:18:57;18.20;99.90
25504;DHT22;13410;52.114;5.718;2023-03-31T13:21:23;18.20;99.90
25504;DHT22;13410;52.114;5.718;2023-03-31T13:23:50;18.50;99.90
25504;DHT22;13410;52.114;5.718;2023-03-31T13:34:28;19.30;99.90
25504;DHT22;13410;52.114;5.718;2023-03-31T13:37:29;19.40;99.90
25504;DHT22;13410;52.114;5.718;2023-03-31T13:45:41;19.50;99.90
25504;DHT22;13410;52.114;5.718;2023-03-31T14:00:33;18.80;99.90
25504;DHT22;13410;52.114;5.718;2023-03-31T14:08:39;18.30;99.90
25504;DHT22;13410;52.114;5.718;2023-03-31T14:11:20;18.30;99.90
25504;DHT22;13410;52.114;5.718;2023-03-31T14:14:13;18.40;99.90
25504;DHT22;13410;52.114;5.718;2023-03-31T14:16:51;18.40;99.90
25504;DHT22;13410;52.114;5.718;2023-03-31T14:19:33;18.40;99.90
25504;DHT22;13410;52.114;5.718;2023-03-31T14:25:38;18.00;99.90
25504;DHT22;13410;52.114;5.718;2023-03-31T14:28:22;17.90;99.90
25504;DHT22;13410;52.114;5.718;2023-03-31T14:39:26;17.40;99.90
25504;DHT22;13410;52.114;5.718;2023-03-31T14:41:53;17.40;99.90
25504;DHT22;13410;52.114;5.718;2023-03-31T14:44:19;17.50;99.90
25504;DHT22;13410;52.114;5.718;2023-03-31T14:46:45;17.60;99.90
25504;DHT22;13410;52.114;5.718;2023-03-31T14:49:22;17.40;99.90
25504;DHT22;13410;52.114;5.718;2023-03-31T14:51:51;17.40;99.90
25504;DHT22;13410;52.114;5.718;2023-03-31T14:54:19;17.40;99.90
25504;DHT22;13410;52.114;5.718;2023-03-31T14:56:50;17.20;99.90
25504;DHT22;13410;52.114;5.718;2023-03-31T14:59:26;17.20;99.90
25504;DHT22;13410;52.114;5.718;2023-03-31T15:01:56;17.20;99.90
25504;DHT22;13410;52.114;5.718;2023-03-31T15:04:25;17.20;99.90
25504;DHT22;13410;52.114;5.718;2023-03-31T15:06:52;17.10;99.90
25504;DHT22;13410;52.114;5.718;2023-03-31T15:09:21;17.20;99.90
25504;DHT22;13410;52.114;5.718;2023-03-31T15:12:00;17.50;99.90
25504;DHT22;13410;52.114;5.718;2023-03-31T15:14:29;17.50;99.90
25504;DHT22;13410;52.114;5.718;2023-03-31T15:16:55;17.60;99.90
25504;DHT22;13410;52.114;5.718;2023-03-31T15:19:23;17.50;99.90
25504;DHT22;13410;52.114;5.718;2023-03-31T15:22:18;17.70;99.90
25504;DHT22;13410;52.114;5.718;2023-03-31T15:24:43;17.80;99.90
25504;DHT22;13410;52.114;5.718;2023-03-31T15:27:11;17.70;99.90
25504;DHT22;13410;52.114;5.718;2023-03-31T15:29:43;17.70;99.90
25504;DHT22;13410;52.114;5.718;2023-03-31T15:32:27;17.60;99.90
25504;DHT22;13410;52.114;5.718;2023-03-31T15:34:53;17.70;99.90
25504;DHT22;13410;52.114;5.718;2023-03-31T15:37:25;17.70;99.90
25504;DHT22;13410;52.114;5.718;2023-03-31T15:39:58;17.90;99.90
25504;DHT22;13410;52.114;5.718;2023-03-31T15:42:26;18.00;99.90
25504;DHT22;13410;52.114;5.718;2023-03-31T15:44:55;17.90;99.90
25504;DHT22;13410;52.114;5.718;2023-03-31T15:47:28;17.70;99.90
25504;DHT22;13410;52.114;5.718;2023-03-31T15:50:07;17.60;99.90
25504;DHT22;13410;52.114;5.718;2023-03-31T15:52:44;17.40;99.90
25504;DHT22;13410;52.114;5.718;2023-03-31T15:55:28;17.40;99.90
25504;DHT22;13410;52.114;5.718;2023-03-31T15:57:57;17.40;99.90
25504;DHT22;13410;52.114;5.718;2023-03-31T16:03:00;17.60;99.90
25504;DHT22;13410;52.114;5.718;2023-03-31T16:05:34;17.50;99.90
25504;DHT22;13410;52.114;5.718;2023-03-31T16:08:02;17.50;99.90
25504;DHT22;13410;52.114;5.718;2023-03-31T16:10:29;17.40;99.90
25504;DHT22;13410;52.114;5.718;2023-03-31T16:12:56;17.30;99.90
25504;DHT22;13410;52.114;5.718;2023-03-31T16:18:02;17.10;99.90
25504;DHT22;13410;52.114;5.718;2023-03-31T16:20:41;17.00;99.90
25504;DHT22;13410;52.114;5.718;2023-03-31T16:23:25;17.00;99.90
25504;DHT22;13410;52.114;5.718;2023-03-31T16:25:52;16.90;99.90
25504;DHT22;13410;52.114;5.718;2023-03-31T16:28:26;17.00;99.90
25504;DHT22;13410;52.114;5.718;2023-03-31T16:30:53;17.20;99.90
25504;DHT22;13410;52.114;5.718;2023-03-31T16:33:21;17.10;99.90
25504;DHT22;13410;52.114;5.718;2023-03-31T16:35:52;17.00;99.90
25504;DHT22;13410;52.114;5.718;2023-03-31T16:38:21;16.80;99.90
25504;DHT22;13410;52.114;5.718;2023-03-31T16:40:49;16.60;99.90
25504;DHT22;13410;52.114;5.718;2023-03-31T16:43:22;16.40;99.90
25504;DHT22;13410;52.114;5.718;2023-03-31T16:45:50;16.10;99.90
25504;DHT22;13410;52.114;5.718;2023-03-31T16:48:18;16.30;99.90
25504;DHT22;13410;52.114;5.718;2023-03-31T16:50:45;16.20;99.90
25504;DHT22;13410;52.114;5.718;2023-03-31T16:53:15;16.10;99.90
25504;DHT22;13410;52.114;5.718;2023-03-31T16:55:42;16.00;99.90
25504;DHT22;13410;52.114;5.718;2023-03-31T16:58:07;15.90;99.90
25504;DHT22;13410;52.114;5.718;2023-03-31T17:00:33;15.90;99.90
25504;DHT22;13410;52.114;5.718;2023-03-31T17:03:04;15.90;99.90
25504;DHT22;13410;52.114;5.718;2023-03-31T17:05:30;16.00;99.90
25504;DHT22;13410;52.114;5.718;2023-03-31T17:07:57;16.00;99.90
25504;DHT22;13410;52.114;5.718;2023-03-31T17:10:23;15.80;99.90
25504;DHT22;13410;52.114;5.718;2023-03-31T17:12:49;15.90;99.90
25504;DHT22;13410;52.114;5.718;2023-03-31T17:15:14;15.90;99.90
25504;DHT22;13410;52.114;5.718;2023-03-31T17:17:41;15.90;99.90
25504;DHT22;13410;52.114;5.718;2023-03-31T17:20:07;15.80;99.90
25504;DHT22;13410;52.114;5.718;2023-03-31T17:22:34;15.90;99.90
25504;DHT22;13410;52.114;5.718;2023-03-31T17:25:00;15.70;99.90
25504;DHT22;13410;52.114;5.718;2023-03-31T17:27:26;15.80;99.90
25504;DHT22;13410;52.114;5.718;2023-03-31T17:29:53;16.00;99.90
25504;DHT22;13410;52.114;5.718;2023-03-31T17:32:20;15.90;99.90
25504;DHT22;13410;52.114;5.718;2023-03-31T17:34:47;15.80;99.90
25504;DHT22;13410;52.114;5.718;2023-03-31T17:37:17;15.80;99.90
25504;DHT22;13410;52.114;5.718;2023-03-31T17:39:42;15.70;99.90
25504;DHT22;13410;52.114;5.718;2023-03-31T17:42:09;15.70;99.90
25504;DHT22;13410;52.114;5.718;2023-03-31T17:44:36;15.50;99.90
25504;DHT22;13410;52.114;5.718;2023-03-31T17:47:01;15.60;99.90
25504;DHT22;13410;52.114;5.718;2023-03-31T17:49:27;15.50;99.90
25504;DHT22;13410;52.114;5.718;2023-03-31T17:51:52;15.60;99.90
25504;DHT22;13410;52.114;5.718;2023-03-31T17:54:18;15.40;99.90
25504;DHT22;13410;52.114;5.718;2023-03-31T17:56:44;15.30;99.90
25504;DHT22;13410;52.114;5.718;2023-03-31T17:59:13;15.30;99.90
25504;DHT22;13410;52.114;5.718;2023-03-31T18:01:39;15.30;99.90
25504;DHT22;13410;52.114;5.718;2023-03-31T18:04:04;15.20;99.90
25504;DHT22;13410;52.114;5.718;2023-03-31T18:06:30;15.20;99.90
25504;DHT22;13410;52.114;5.718;2023-03-31T18:08:56;15.30;99.90
25504;DHT22;13410;52.114;5.718;2023-03-31T18:11:22;15.40;99.90
25504;DHT22;13410;52.114;5.718;2023-03-31T18:13:47;15.30;99.90
25504;DHT22;13410;52.114;5.718;2023-03-31T18:16:14;15.30;99.90
25504;DHT22;13410;52.114;5.718;2023-03-31T18:18:40;15.20;99.90
25504;DHT22;13410;52.114;5.718;2023-03-31T18:21:10;15.30;99.90
25504;DHT22;13410;52.114;5.718;2023-03-31T18:23:36;15.30;99.90